New York, NY

05:07 PM EDT del 25 Ottobre 2014 (GMT -0400)
La Guardia | Change Station
CLOSE
Current Station
Aeroporto
Location: New York,
Altitudine: 30 ft
Stazioni meteo nelle vicinanze

Alt. 30 ft 40.78 °N, 73.88 °W | Updated 16 minutes ago

Parzialmente nuvoloso
Parzialmente nuvoloso
67 °F
Sembra 67 °F
N
16
Vento Variabile Vento da SO
Gusts 21 mph

Oggi
Massima -- | Minima -- °F
--% Possibilità di precip.
Ieri
Massima -- | Minima -- °F
Precip. -- in
7:18 AM 6:01 PM
Luna crescente, 4% visible
Pressione 29.65 in
Visibilità 10.0 miglia
Nuvole Alcuni 25000 ft
Punto di rugiada 43 °F
Umidità 42%
Piovosità 0.00 in
Spessore del manto nevoso Non disponibile.
Raggi UV 1 fuori da 12
Polline 1.40 fuori da 12
Ozono Buono
PM2.5 Buono
Flu Activity Sporadic
METAR KLGA 252051Z 23014G18KT 10SM FEW250 19/06 A2965 RMK AO2 SLP040 T01940061 57025

More Conditions Fewer Conditions

Pressione 29.65 in
Visibilità 10.0 miglia
Nuvole Alcuni 25000 ft
Punto di rugiada 43 °F
Umidità 42%
Piovosità 0.00 in
Spessore del manto nevoso Non disponibile.
Raggi UV 1 fuori da 12
Polline 1.40 fuori da 12
Ozono Buono
PM2.5 Buono
Flu Activity Sporadic
METAR KLGA 252051Z 23014G18KT 10SM FEW250 19/06 A2965 RMK AO2 SLP040 T01940061 57025

More Conditions Fewer Conditions

10-Day Weather Forecast

Almanac

Astronomia

Oct. 25, 2014 Alba Tramonto
Ora attuale 07:18 EDT 18:01 EDT
Crepuscolo civile 06:50 EDT 18:29 EDT
Crepuscolo nautico 06:18 EDT 19:01 EDT
Crepuscolo astronomico 05:46 EDT 19:32 EDT
Luna 08:54 EDT 19:21 EDT
Estensione della luce visibile 11h 39m
Lunghezza del giorno
10h 42m
Tomorrow will be 2m 29s shorter.
Luna crescente, 4% of the Moon is Illuminated
Oggi
Luna crescente
Ott 30
Primo quarto
Nov 6
Luna piena
Nov 14
Ultimo quarto
Nov 22
Nuovo

Gli estremi di oggi

State Highs State Lows

Community

WunderPhotos

Upload Photos

1,764,996 foto caricate!

Nearby

Qualità dell'aria

  Qualità dell'aria Indice AQ Inquinante
Ieri Buono
OZONE
Ieri Buono
PM2.5
Attuale Buono
PM2.5
Attuale Buono
OZONE
Sabato Buono
PM2.5
Domenica Buono
PM2.5
Lunedì Buono
PM2.5

Profondità neve

Stazione Profondità Altitudine
Non sono state evidenziate nuove nevicate

Attività sismica

Città  Distanza Mag. Data & Ora
Non sono state riportate attività sismiche nelle vicinanze.
Minimo Magnitudo Mostrato è 2.5.

Temperature delle acque costiere

Località Temperatura
Sandy Hook, NJ 57.9 °F
The Battery, NY 62.1 °F
Kings Point, NY 59.0 °F

Stazioni meteo nelle vicinanze